Time;durP1;ratioP1;P1;durP2;ratioP2;P2;SDS_P1;SDS_P2;PMS_P1;PMS_P2;Temp;Humidity;BMP_temperature;BMP_pressure;BME280_temperature;BME280_humidity;BME280_pressure;Samples;Min_cycle;Max_cycle;Signal;HPM_P1;HPM_P2
2023/10/03 00:01:23;;;;;;;13.13;9.77;;;22.30;58.30;;;;;;5031544;28;20199;-68
2023/10/03 00:03:52;;;;;;;14.30;9.80;;;22.30;58.30;;;;;;5031142;28;20660;-67
2023/10/03 00:06:18;;;;;;;16.50;10.63;;;22.30;58.30;;;;;;5014116;28;20223;-68
2023/10/03 00:08:45;;;;;;;13.13;9.00;;;22.30;58.30;;;;;;5031103;28;20850;-69
2023/10/03 00:11:22;;;;;;;16.53;10.43;;;22.30;58.30;;;;;;5031102;28;20221;-69
2023/10/03 00:13:50;;;;;;;10.03;8.17;;;22.40;58.30;;;;;;5030933;28;20492;-68
2023/10/03 00:16:16;;;;;;;12.17;9.10;;;22.30;58.30;;;;;;5031050;28;20403;-67
2023/10/03 00:18:42;;;;;;;15.97;10.73;;;22.30;58.30;;;;;;5031017;28;20434;-68
2023/10/03 00:21:07;;;;;;;11.57;8.60;;;22.30;58.30;;;;;;5030924;28;20446;-69
2023/10/03 00:23:33;;;;;;;14.37;9.80;;;22.30;58.30;;;;;;5030943;28;20434;-68
2023/10/03 00:26:02;;;;;;;16.10;10.30;;;22.30;58.30;;;;;;5030948;28;20182;-69
2023/10/03 00:28:32;;;;;;;12.63;9.00;;;22.30;58.30;;;;;;5030808;28;20203;-69
2023/10/03 00:30:58;;;;;;;13.83;9.60;;;22.30;58.30;;;;;;5012972;28;20450;-67
2023/10/03 00:33:25;;;;;;;10.70;7.63;;;22.30;58.30;;;;;;5012036;28;20566;-68
2023/10/03 00:35:53;;;;;;;14.00;9.87;;;22.30;58.20;;;;;;5030825;28;20505;-66
2023/10/03 00:38:21;;;;;;;13.63;9.50;;;22.30;58.20;;;;;;5030728;28;20405;-68
2023/10/03 00:40:49;;;;;;;14.90;10.43;;;22.30;58.20;;;;;;5031006;28;20471;-67
2023/10/03 00:43:15;;;;;;;13.80;10.00;;;22.30;58.40;;;;;;5030647;28;20199;-68
2023/10/03 00:45:42;;;;;;;15.90;10.47;;;22.30;58.20;;;;;;5030699;28;20406;-69
2023/10/03 00:48:08;;;;;;;14.33;9.47;;;22.30;58.20;;;;;;5030665;28;20822;-68
2023/10/03 00:50:35;;;;;;;12.33;8.30;;;22.30;58.20;;;;;;5012833;28;20425;-68
2023/10/03 00:53:09;;;;;;;14.90;10.70;;;22.30;58.20;;;;;;5030564;28;20647;-67
2023/10/03 00:55:38;;;;;;;13.87;8.90;;;22.30;58.20;;;;;;5030627;28;20409;-68
2023/10/03 01:00:31;;;;;;;13.97;9.53;;;22.30;58.20;;;;;;5030892;28;20954;-68
2023/10/03 01:02:57;;;;;;;11.40;8.40;;;22.30;58.10;;;;;;5030539;28;20430;-67
2023/10/03 01:05:23;;;;;;;14.13;9.37;;;22.30;58.10;;;;;;5030480;28;20445;-69
2023/10/03 01:07:49;;;;;;;14.87;10.30;;;22.30;58.10;;;;;;5030514;28;20770;-67
2023/10/03 01:10:18;;;;;;;14.00;9.23;;;22.30;58.10;;;;;;5030539;28;20414;-68
2023/10/03 01:12:45;;;;;;;15.40;10.10;;;22.30;58.10;;;;;;5030393;28;20457;-67
2023/10/03 01:15:18;;;;;;;17.57;11.13;;;22.30;58.10;;;;;;5030406;28;20407;-69
2023/10/03 01:17:48;;;;;;;13.73;9.87;;;22.30;58.10;;;;;;5030443;28;20409;-68
2023/10/03 01:20:18;;;;;;;14.60;9.90;;;22.30;58.10;;;;;;5030336;28;20414;-69
2023/10/03 01:22:51;;;;;;;14.10;9.50;;;22.30;58.10;;;;;;5030244;28;20468;-68
2023/10/03 01:25:17;;;;;;;12.70;9.10;;;22.30;58.10;;;;;;5030435;28;20414;-66
2023/10/03 01:27:42;;;;;;;15.37;9.87;;;22.30;58.10;;;;;;5030442;28;20422;-66
2023/10/03 01:30:10;;;;;;;13.83;9.90;;;22.30;58.10;;;;;;5030578;28;20176;-67
2023/10/03 01:32:38;;;;;;;16.03;10.43;;;22.30;58.10;;;;;;5030161;28;20195;-68
2023/10/03 01:35:08;;;;;;;13.17;9.47;;;22.30;58.10;;;;;;5030378;28;20410;-66
2023/10/03 01:37:34;;;;;;;15.90;10.60;;;22.30;58.10;;;;;;5030646;28;20475;-66
2023/10/03 01:39:59;;;;;;;14.47;10.60;;;22.30;58.10;;;;;;5030238;28;20907;-67
2023/10/03 01:42:25;;;;;;;16.60;11.20;;;22.30;58.10;;;;;;5030282;28;20188;-66
2023/10/03 01:44:50;;;;;;;14.40;9.87;;;22.30;58.10;;;;;;5031557;28;20287;-68
2023/10/03 01:47:16;;;;;;;13.60;9.40;;;22.30;58.10;;;;;;5033900;28;20183;-66
2023/10/03 01:49:43;;;;;;;15.33;10.03;;;22.30;58.10;;;;;;5033790;28;20966;-66
2023/10/03 01:52:09;;;;;;;14.70;10.20;;;22.30;58.10;;;;;;5033638;28;20453;-67
2023/10/03 01:54:34;;;;;;;15.03;10.30;;;22.30;58.10;;;;;;5033637;28;20596;-68
2023/10/03 01:57:01;;;;;;;17.80;10.33;;;22.30;58.10;;;;;;5033652;28;20176;-66
2023/10/03 01:59:26;;;;;;;15.77;9.63;;;22.30;58.10;;;;;;5033591;28;20171;-68
2023/10/03 02:01:52;;;;;;;13.13;9.27;;;22.30;58.10;;;;;;5033859;28;20410;-67
2023/10/03 02:04:18;;;;;;;16.37;9.80;;;22.30;58.70;;;;;;5033484;28;20434;-67
2023/10/03 02:06:44;;;;;;;14.30;9.93;;;22.30;58.10;;;;;;5033385;28;20589;-68
2023/10/03 02:09:10;;;;;;;16.47;10.50;;;22.30;58.10;;;;;;5033496;28;20172;-67
2023/10/03 02:11:37;;;;;;;16.30;10.10;;;22.30;58.00;;;;;;5033621;28;20469;-67
2023/10/03 02:14:07;;;;;;;17.30;10.63;;;22.30;58.00;;;;;;5033169;28;20454;-66
2023/10/03 02:16:40;;;;;;;15.93;10.80;;;22.30;58.10;;;;;;5033730;28;20434;-66
2023/10/03 02:19:06;;;;;;;15.00;10.57;;;22.30;58.00;;;;;;5033334;28;20472;-67
2023/10/03 02:21:32;;;;;;;15.53;10.10;;;22.30;58.10;;;;;;5033238;28;20402;-67
2023/10/03 02:23:57;;;;;;;17.40;11.03;;;22.30;58.00;;;;;;5033094;28;20239;-67
2023/10/03 02:26:28;;;;;;;17.60;11.10;;;22.30;58.00;;;;;;5033132;28;20198;-68
2023/10/03 02:28:54;;;;;;;16.03;9.67;;;22.30;58.00;;;;;;5033057;28;20167;-67
2023/10/03 02:31:20;;;;;;;17.93;10.67;;;22.30;58.00;;;;;;5033066;28;20429;-66
2023/10/03 02:33:46;;;;;;;15.47;10.57;;;22.30;58.00;;;;;;5032746;28;20222;-67
2023/10/03 02:36:11;;;;;;;17.13;10.47;;;22.30;58.00;;;;;;5032905;28;20410;-67
2023/10/03 02:38:38;;;;;;;14.63;9.60;;;22.30;58.00;;;;;;5032812;28;20215;-67
2023/10/03 02:41:06;;;;;;;17.27;10.80;;;22.30;58.00;;;;;;5032957;28;20180;-67
2023/10/03 02:43:38;;;;;;;15.53;10.57;;;22.30;58.00;;;;;;5032772;28;20523;-64
2023/10/03 02:46:04;;;;;;;17.20;11.10;;;22.20;57.90;;;;;;5032750;28;20406;-66
2023/10/03 02:48:30;;;;;;;14.70;9.50;;;22.30;58.50;;;;;;5033077;28;20841;-66
2023/10/03 02:50:56;;;;;;;17.10;10.23;;;22.20;57.90;;;;;;5032638;28;20517;-66
2023/10/03 02:53:22;;;;;;;16.27;10.60;;;22.30;58.00;;;;;;5032807;28;20556;-66
2023/10/03 02:55:49;;;;;;;15.03;10.97;;;22.20;57.90;;;;;;5032158;28;20662;-66
2023/10/03 02:58:17;;;;;;;16.70;10.57;;;22.20;57.90;;;;;;5032397;28;20175;-66
2023/10/03 03:00:43;;;;;;;16.07;10.40;;;22.20;57.90;;;;;;5032518;28;20925;-66
2023/10/03 03:03:10;;;;;;;16.33;10.40;;;22.20;57.90;;;;;;5032393;28;20445;-67
2023/10/03 03:05:37;;;;;;;15.53;10.07;;;22.20;57.90;;;;;;5014463;28;20500;-67
2023/10/03 03:10:49;;;;;;;15.43;10.23;;;22.20;57.90;;;;;;5032526;28;20399;-67
2023/10/03 03:13:15;;;;;;;18.63;10.33;;;22.20;57.90;;;;;;5032291;28;20565;-67
2023/10/03 03:15:51;;;;;;;16.00;10.30;;;22.20;57.90;;;;;;5032182;28;20500;-68
2023/10/03 03:18:20;;;;;;;15.90;10.30;;;22.20;57.90;;;;;;5032155;28;20198;-67
2023/10/03 03:20:53;;;;;;;17.03;10.70;;;22.20;57.90;;;;;;5032145;28;20416;-66
2023/10/03 03:23:20;;;;;;;19.50;11.10;;;22.20;57.90;;;;;;5031961;28;20439;-66
2023/10/03 03:25:49;;;;;;;15.07;10.37;;;22.20;57.90;;;;;;5031990;28;20414;-66
2023/10/03 03:28:15;;;;;;;16.40;11.77;;;22.20;57.90;;;;;;5031920;28;20410;-68
2023/10/03 03:30:54;;;;;;;15.10;10.17;;;22.20;57.90;;;;;;5031895;28;20480;-67
2023/10/03 03:33:20;;;;;;;16.27;11.10;;;22.20;57.90;;;;;;5031639;28;20216;-68
2023/10/03 03:35:47;;;;;;;16.50;10.90;;;22.20;57.90;;;;;;5031782;28;20407;-67
2023/10/03 03:38:20;;;;;;;14.97;10.60;;;22.20;57.90;;;;;;5031992;28;20794;-66
2023/10/03 03:40:47;;;;;;;18.97;12.10;;;22.20;57.90;;;;;;5031829;28;20390;-66
2023/10/03 03:43:16;;;;;;;18.40;11.40;;;22.20;58.00;;;;;;5031922;28;20462;-67
2023/10/03 03:45:45;;;;;;;19.07;11.70;;;22.20;57.90;;;;;;5031594;28;20418;-67
2023/10/03 03:48:13;;;;;;;18.40;10.90;;;22.20;58.00;;;;;;5031510;28;20468;-68
2023/10/03 03:50:39;;;;;;;16.47;10.80;;;22.20;57.90;;;;;;5031568;28;20781;-68
2023/10/03 03:53:06;;;;;;;18.10;11.37;;;22.20;57.90;;;;;;5031326;28;20544;-67
2023/10/03 03:55:36;;;;;;;17.10;10.83;;;22.20;58.00;;;;;;5031438;28;20778;-67
2023/10/03 03:58:07;;;;;;;18.77;10.83;;;22.20;57.90;;;;;;5031356;28;20417;-65
2023/10/03 04:00:34;;;;;;;16.90;10.93;;;22.20;57.90;;;;;;5031419;28;20395;-66
2023/10/03 04:03:05;;;;;;;16.40;11.23;;;22.20;58.00;;;;;;5031221;28;20939;-66
2023/10/03 04:05:32;;;;;;;16.97;10.70;;;22.20;58.00;;;;;;5031440;28;21053;-67
2023/10/03 04:07:59;;;;;;;15.63;10.90;;;22.20;58.00;;;;;;5030363;28;20418;-66
2023/10/03 04:10:26;;;;;;;17.80;10.43;;;22.20;58.00;;;;;;5031344;28;20455;-68
2023/10/03 04:12:52;;;;;;;17.90;10.77;;;22.20;58.00;;;;;;5031054;28;20508;-65
2023/10/03 04:15:20;;;;;;;17.10;10.60;;;22.20;58.00;;;;;;5031113;28;20406;-68
2023/10/03 04:17:48;;;;;;;19.93;12.00;;;22.20;58.00;;;;;;5031115;28;20953;-67
2023/10/03 04:20:25;;;;;;;17.90;10.60;;;22.20;58.00;;;;;;5031014;28;20414;-67
2023/10/03 04:22:52;;;;;;;17.80;11.40;;;22.20;57.90;;;;;;5031043;28;20442;-67
2023/10/03 04:25:19;;;;;;;17.90;11.33;;;22.20;58.00;;;;;;5030976;28;20414;-67
2023/10/03 04:27:50;;;;;;;17.50;11.07;;;22.20;57.90;;;;;;5030310;28;20411;-67
2023/10/03 04:30:16;;;;;;;19.10;11.60;;;22.20;58.00;;;;;;5030973;28;20418;-67
2023/10/03 04:32:42;;;;;;;16.53;10.40;;;22.20;57.90;;;;;;5030595;28;20446;-67
2023/10/03 04:35:17;;;;;;;18.67;11.67;;;22.20;57.90;;;;;;5030907;28;20529;-69
2023/10/03 04:37:44;;;;;;;19.47;11.77;;;22.20;57.90;;;;;;5030828;28;20390;-66
2023/10/03 04:40:13;;;;;;;19.20;11.37;;;22.20;57.90;;;;;;5030844;28;20414;-67
2023/10/03 04:42:38;;;;;;;20.13;11.07;;;22.20;57.90;;;;;;5030745;28;20410;-68
2023/10/03 04:45:10;;;;;;;17.53;11.70;;;22.20;58.00;;;;;;5030809;28;20436;-67
2023/10/03 04:47:41;;;;;;;16.03;11.27;;;22.20;57.90;;;;;;5030744;28;20166;-68
2023/10/03 04:50:08;;;;;;;21.20;13.17;;;22.20;57.90;;;;;;5030774;28;20399;-67
2023/10/03 04:52:33;;;;;;;18.73;12.03;;;22.20;57.90;;;;;;5030819;28;20481;-66
2023/10/03 04:54:59;;;;;;;19.43;11.40;;;22.20;57.90;;;;;;5030609;28;20516;-68
2023/10/03 04:57:27;;;;;;;20.20;11.30;;;22.20;57.90;;;;;;5030731;28;20172;-66
2023/10/03 04:59:57;;;;;;;17.27;10.43;;;22.20;57.90;;;;;;5030678;28;20171;-67
2023/10/03 05:02:23;;;;;;;18.97;12.40;;;22.20;57.90;;;;;;5030626;28;20472;-66
2023/10/03 05:04:48;;;;;;;24.07;13.53;;;22.20;57.90;;;;;;5030682;28;20446;-67
2023/10/03 05:07:15;;;;;;;20.03;12.10;;;22.20;57.90;;;;;;5030849;28;20510;-66
2023/10/03 05:09:40;;;;;;;19.80;12.33;;;22.20;57.90;;;;;;5030584;28;20648;-67
2023/10/03 05:12:06;;;;;;;19.50;10.90;;;22.20;57.90;;;;;;5030463;28;20456;-67
2023/10/03 05:14:34;;;;;;;20.07;12.10;;;22.20;57.90;;;;;;5030525;28;20565;-66
2023/10/03 05:17:01;;;;;;;19.10;11.83;;;22.20;58.00;;;;;;5030573;28;20486;-67
2023/10/03 05:19:27;;;;;;;21.10;12.40;;;22.20;57.90;;;;;;5031492;28;20472;-67
2023/10/03 05:21:53;;;;;;;21.10;12.50;;;22.20;57.90;;;;;;5034322;28;20410;-69
2023/10/03 05:24:19;;;;;;;19.73;11.60;;;22.20;57.90;;;;;;5034195;28;20231;-67
2023/10/03 05:26:45;;;;;;;18.73;10.87;;;22.20;58.00;;;;;;5034503;28;20182;-68
2023/10/03 05:29:10;;;;;;;23.70;13.20;;;22.20;57.90;;;;;;5034113;28;20432;-66
2023/10/03 05:31:40;;;;;;;22.67;12.80;;;22.20;57.90;;;;;;5034193;28;20418;-68
2023/10/03 05:34:10;;;;;;;22.27;12.90;;;22.20;57.90;;;;;;5033922;28;20223;-66
2023/10/03 05:36:35;;;;;;;19.27;10.50;;;22.20;58.00;;;;;;5034078;28;20407;-67
2023/10/03 05:39:02;;;;;;;19.90;12.20;;;22.20;57.90;;;;;;5034004;28;20414;-67
2023/10/03 05:41:28;;;;;;;19.43;12.13;;;22.20;57.90;;;;;;5033978;28;20231;-67
2023/10/03 05:43:54;;;;;;;19.33;12.40;;;22.20;58.00;;;;;;5015991;28;20947;-67
2023/10/03 05:46:20;;;;;;;19.03;12.10;;;22.20;58.00;;;;;;5033768;28;20418;-68
2023/10/03 05:48:46;;;;;;;20.60;12.63;;;22.20;57.90;;;;;;5033836;28;20203;-67
2023/10/03 05:51:12;;;;;;;18.07;11.80;;;22.20;58.00;;;;;;5033683;28;20175;-66
2023/10/03 05:53:40;;;;;;;20.40;13.57;;;22.20;58.00;;;;;;5033607;28;20469;-67
2023/10/03 05:56:06;;;;;;;18.40;12.37;;;22.20;58.00;;;;;;5033678;28;20168;-68
2023/10/03 05:58:32;;;;;;;19.47;12.03;;;22.20;58.00;;;;;;5033741;28;20426;-67
2023/10/03 06:00:59;;;;;;;21.50;13.03;;;22.10;57.90;;;;;;5033664;28;20176;-67
2023/10/03 06:03:25;;;;;;;20.07;12.00;;;22.20;58.00;;;;;;5033872;28;20443;-66
2023/10/03 06:05:50;;;;;;;22.10;12.53;;;22.20;58.30;;;;;;5033554;28;20803;-66
2023/10/03 06:08:17;;;;;;;20.70;12.27;;;22.20;58.00;;;;;;5015520;28;20433;-65
2023/10/03 06:10:43;;;;;;;20.93;12.30;;;22.20;58.00;;;;;;5033452;28;20270;-65
2023/10/03 06:13:11;;;;;;;19.83;12.33;;;22.20;58.00;;;;;;5033200;28;20569;-67
2023/10/03 06:15:43;;;;;;;20.17;12.13;;;22.20;58.10;;;;;;5033342;28;20641;-66
2023/10/03 06:18:09;;;;;;;22.00;12.30;;;22.20;58.10;;;;;;5015469;28;20838;-66
2023/10/03 06:20:35;;;;;;;19.87;11.87;;;22.10;58.00;;;;;;5033178;28;20426;-66
2023/10/03 06:23:04;;;;;;;23.20;13.60;;;22.20;58.10;;;;;;5033164;28;20500;-66
2023/10/03 06:25:30;;;;;;;18.10;11.43;;;22.10;58.10;;;;;;5033189;28;20418;-68
2023/10/03 06:27:56;;;;;;;20.30;12.90;;;22.20;58.10;;;;;;5032896;28;20414;-66
2023/10/03 06:30:22;;;;;;;20.47;12.70;;;22.20;58.10;;;;;;5032770;28;20476;-66
2023/10/03 06:32:48;;;;;;;19.73;11.63;;;22.20;58.20;;;;;;5031923;28;20454;-66
2023/10/03 06:35:14;;;;;;;19.77;11.60;;;22.20;58.20;;;;;;5033041;28;20460;-66
2023/10/03 06:37:40;;;;;;;19.37;12.40;;;22.10;58.10;;;;;;5032883;28;20176;-67
2023/10/03 06:40:06;;;;;;;20.60;12.43;;;22.10;58.20;;;;;;5032862;28;20168;-66
2023/10/03 06:42:34;;;;;;;19.73;12.20;;;22.10;58.20;;;;;;5033078;28;20529;-68
2023/10/03 06:45:00;;;;;;;19.77;11.67;;;22.10;58.20;;;;;;5032800;28;20793;-66
2023/10/03 06:47:26;;;;;;;18.30;11.70;;;22.10;58.20;;;;;;5032698;28;20414;-67
2023/10/03 06:49:51;;;;;;;16.67;11.90;;;22.20;58.30;;;;;;5022633;28;20439;-67
2023/10/03 06:52:17;;;;;;;22.73;13.03;;;22.10;58.30;;;;;;5013444;28;20188;-69
2023/10/03 06:54:43;;;;;;;20.57;13.60;;;22.20;58.30;;;;;;5012878;28;20398;-67
2023/10/03 06:57:10;;;;;;;18.97;13.20;;;22.20;58.40;;;;;;5011979;28;20179;-68
2023/10/03 06:59:35;;;;;;;19.83;11.70;;;22.20;58.40;;;;;;5012836;28;20412;-66
2023/10/03 07:02:02;;;;;;;21.00;13.43;;;22.10;58.30;;;;;;5013015;28;20785;-67
2023/10/03 07:04:27;;;;;;;18.80;11.10;;;22.20;58.40;;;;;;5014430;28;20192;-68
2023/10/03 07:06:53;;;;;;;16.70;12.17;;;22.20;58.40;;;;;;5014063;28;20927;-67
2023/10/03 07:09:19;;;;;;;19.50;12.97;;;22.20;58.40;;;;;;5012180;28;20235;-66
2023/10/03 07:11:47;;;;;;;20.00;11.90;;;22.20;58.40;;;;;;5001684;28;20177;-67
2023/10/03 07:14:14;;;;;;;20.33;13.37;;;22.20;58.40;;;;;;4992719;28;20644;-66
2023/10/03 07:16:41;;;;;;;18.60;10.97;;;22.20;58.40;;;;;;4997257;28;20427;-67
2023/10/03 07:19:09;;;;;;;18.33;12.20;;;22.20;58.40;;;;;;5006230;28;20889;-67
2023/10/03 07:21:35;;;;;;;21.20;11.97;;;22.20;58.40;;;;;;5012341;28;20419;-67
2023/10/03 07:24:01;;;;;;;20.30;11.90;;;22.20;58.50;;;;;;5010768;28;20443;-68
2023/10/03 07:26:27;;;;;;;18.37;12.00;;;22.20;58.50;;;;;;5012135;28;20602;-68
2023/10/03 07:28:58;;;;;;;18.63;11.07;;;22.20;58.50;;;;;;4994405;28;20431;-69
2023/10/03 07:31:24;;;;;;;17.23;12.00;;;22.20;58.50;;;;;;5012136;28;20483;-66
2023/10/03 07:33:52;;;;;;;20.00;11.90;;;22.20;58.50;;;;;;5011850;28;20513;-68
2023/10/03 07:36:17;;;;;;;17.10;12.50;;;22.20;58.50;;;;;;4994820;28;20416;-65
2023/10/03 07:38:45;;;;;;;21.13;12.47;;;22.20;58.50;;;;;;5012034;28;20415;-66
2023/10/03 07:41:16;;;;;;;18.03;10.77;;;22.20;58.50;;;;;;5011761;28;20177;-68
2023/10/03 07:43:47;;;;;;;22.70;13.23;;;22.20;58.50;;;;;;5011627;28;20431;-68
2023/10/03 07:46:20;;;;;;;20.43;12.80;;;22.20;58.50;;;;;;5011915;28;20466;-65
2023/10/03 07:48:46;;;;;;;21.20;12.83;;;22.20;58.50;;;;;;5011659;28;20892;-65
2023/10/03 07:51:16;;;;;;;20.30;12.47;;;22.20;58.50;;;;;;5011812;28;20423;-66
2023/10/03 07:53:42;;;;;;;17.00;10.67;;;22.20;58.50;;;;;;5011519;28;20520;-67
2023/10/03 07:56:25;;;;;;;20.20;12.70;;;22.20;58.40;;;;;;5011764;28;20415;-66
2023/10/03 07:58:54;;;;;;;20.50;12.07;;;22.20;58.40;;;;;;5011685;28;20649;-67
2023/10/03 08:01:27;;;;;;;20.90;12.47;;;22.20;58.50;;;;;;5011630;28;20426;-67
2023/10/03 08:03:53;;;;;;;22.70;11.60;;;22.20;58.50;;;;;;5015289;28;20944;-65
2023/10/03 08:06:24;;;;;;;17.70;11.07;;;22.20;58.50;;;;;;5011219;28;20419;-66
2023/10/03 08:08:55;;;;;;;19.60;12.50;;;22.20;58.40;;;;;;5011820;28;20395;-65
2023/10/03 08:11:28;;;;;;;18.20;11.93;;;22.20;58.50;;;;;;4995025;28;20953;-66
2023/10/03 08:14:14;;;;;;;19.93;11.50;;;22.30;58.60;;;;;;5012881;28;20478;-68
2023/10/03 08:16:41;;;;;;;21.40;12.43;;;22.30;58.50;;;;;;5014505;28;20419;-68
2023/10/03 08:19:21;;;;;;;21.50;11.97;;;22.30;58.50;;;;;;5011337;28;20498;-66
2023/10/03 08:21:49;;;;;;;20.50;11.83;;;22.30;58.40;;;;;;5011334;28;20449;-67
2023/10/03 08:24:18;;;;;;;18.63;12.47;;;22.30;58.40;;;;;;5012807;28;20944;-70
2023/10/03 08:26:46;;;;;;;22.70;12.40;;;22.30;58.40;;;;;;5011590;28;20419;-67
2023/10/03 08:29:21;;;;;;;20.17;13.20;;;22.30;58.40;;;;;;5011247;28;20418;-68
2023/10/03 08:31:57;;;;;;;23.10;11.70;;;22.30;58.30;;;;;;5012828;28;20426;-67
2023/10/03 08:34:27;;;;;;;19.80;11.77;;;22.30;58.30;;;;;;4995030;28;20524;-66
2023/10/03 08:36:54;;;;;;;20.13;11.20;;;22.30;58.30;;;;;;5011621;28;20451;-68
2023/10/03 08:39:23;;;;;;;21.13;11.07;;;22.30;58.30;;;;;;5012279;28;20949;-68
2023/10/03 08:41:58;;;;;;;21.27;11.87;;;22.30;58.30;;;;;;5012340;28;20403;-68
2023/10/03 08:44:27;;;;;;;21.00;11.03;;;22.30;58.30;;;;;;5012210;28;20423;-67
2023/10/03 08:46:55;;;;;;;19.67;11.50;;;22.30;58.30;;;;;;5013047;28;20465;-67
2023/10/03 08:49:27;;;;;;;18.53;11.43;;;22.30;58.30;;;;;;5012709;28;20416;-66
2023/10/03 08:52:01;;;;;;;23.33;11.30;;;22.30;58.30;;;;;;5012106;28;20530;-67
2023/10/03 08:54:36;;;;;;;18.67;11.03;;;22.30;58.30;;;;;;4996570;28;20441;-67
2023/10/03 08:57:02;;;;;;;18.97;11.77;;;22.40;58.40;;;;;;5016323;28;20922;-65
2023/10/03 08:59:30;;;;;;;17.77;11.90;;;22.30;58.30;;;;;;5016237;28;20395;-68
2023/10/03 09:02:00;;;;;;;16.70;11.43;;;22.30;58.30;;;;;;5016286;28;20176;-65
2023/10/03 09:04:37;;;;;;;23.17;12.67;;;22.30;58.30;;;;;;5016006;28;20430;-65
2023/10/03 09:07:08;;;;;;;20.20;11.83;;;22.30;58.30;;;;;;5015105;28;20750;-68
2023/10/03 09:09:41;;;;;;;21.90;12.00;;;22.30;58.30;;;;;;5015560;28;20426;-66
2023/10/03 09:12:08;;;;;;;16.93;11.27;;;22.40;58.30;;;;;;5015236;28;20418;-67
2023/10/03 09:14:36;;;;;;;19.73;11.20;;;22.40;58.30;;;;;;5015310;28;20422;-68
2023/10/03 09:17:05;;;;;;;18.50;10.03;;;22.40;58.30;;;;;;5016398;28;20411;-66
2023/10/03 09:19:44;;;;;;;16.20;10.87;;;22.40;58.40;;;;;;5016095;28;20438;-67
2023/10/03 09:22:15;;;;;;;20.87;11.47;;;22.40;58.40;;;;;;5015741;28;20469;-67
2023/10/03 09:24:46;;;;;;;15.90;9.40;;;22.40;58.40;;;;;;5015469;28;20438;-67
2023/10/03 09:27:17;;;;;;;18.43;11.13;;;22.40;58.30;;;;;;5015155;28;20439;-67
2023/10/03 09:29:45;;;;;;;18.43;10.80;;;22.40;58.30;;;;;;5015826;28;20433;-66
2023/10/03 09:32:14;;;;;;;15.93;9.43;;;22.40;58.30;;;;;;5015382;28;20510;-64
2023/10/03 09:34:43;;;;;;;16.17;10.50;;;22.30;58.30;;;;;;5015041;28;20447;-64
2023/10/03 09:37:10;;;;;;;14.43;10.57;;;22.40;58.30;;;;;;5015319;28;20498;-64
2023/10/03 09:39:39;;;;;;;17.20;10.07;;;22.40;58.30;;;;;;5015363;28;20467;-67
2023/10/03 09:42:15;;;;;;;16.23;9.07;;;22.40;58.30;;;;;;5015318;28;20976;-64
2023/10/03 09:44:45;;;;;;;15.23;9.40;;;22.40;58.30;;;;;;5015437;28;20951;-65
2023/10/03 09:47:13;;;;;;;16.80;10.60;;;22.40;58.30;;;;;;5015101;28;20434;-66
2023/10/03 09:49:39;;;;;;;22.27;11.20;;;22.40;58.30;;;;;;5014957;28;20928;-65
2023/10/03 09:52:26;;;;;;;19.77;10.90;;;22.40;58.30;;;;;;5015203;28;20423;-65
2023/10/03 09:54:53;;;;;;;17.83;11.20;;;22.40;58.30;;;;;;5015099;28;20482;-66
2023/10/03 09:57:23;;;;;;;19.77;11.23;;;22.40;58.30;;;;;;5015309;28;20450;-66
2023/10/03 09:59:50;;;;;;;16.60;10.40;;;22.40;58.30;;;;;;5015412;28;20411;-66
2023/10/03 10:02:19;;;;;;;15.30;9.40;;;22.40;58.30;;;;;;4997638;28;20423;-66
2023/10/03 10:04:48;;;;;;;14.77;9.23;;;22.40;58.40;;;;;;5015265;28;20439;-66
2023/10/03 10:07:33;;;;;;;17.30;10.30;;;22.40;58.40;;;;;;5014922;28;20416;-65
2023/10/03 10:10:13;;;;;;;18.33;11.40;;;22.40;58.40;;;;;;4997055;28;20948;-65
2023/10/03 10:13:12;;;;;;;15.77;9.80;;;22.40;58.50;;;;;;5005597;28;20841;-63
2023/10/03 10:19:04;;;;;;;18.20;10.33;;;22.40;58.40;;;;;;4987778;28;20506;-65
2023/10/03 10:21:37;;;;;;;17.40;10.03;;;22.40;58.50;;;;;;5014606;28;20494;-66
2023/10/03 10:24:16;;;;;;;14.80;9.70;;;22.40;58.50;;;;;;4997519;28;20557;-66
2023/10/03 10:26:42;;;;;;;14.33;9.33;;;22.40;58.50;;;;;;5014503;28;20422;-65
2023/10/03 10:29:09;;;;;;;14.60;9.53;;;22.40;58.50;;;;;;5014243;28;20430;-66
2023/10/03 10:31:49;;;;;;;19.00;11.87;;;22.40;58.50;;;;;;5014038;28;20419;-66
2023/10/03 10:34:18;;;;;;;16.30;10.20;;;22.50;58.50;;;;;;5013834;28;20544;-69
2023/10/03 10:37:04;;;;;;;14.60;9.93;;;22.40;58.50;;;;;;5014446;28;20415;-66
2023/10/03 10:43:00;;;;;;;14.03;9.73;;;22.50;58.60;;;;;;4912809;29;20950;-68
2023/10/03 10:45:27;;;;;;;13.90;9.10;;;22.40;58.50;;;;;;4914657;29;20470;-66
2023/10/03 10:47:54;;;;;;;15.80;8.90;;;22.40;58.50;;;;;;4915006;29;20427;-64
2023/10/03 10:50:26;;;;;;;13.20;8.50;;;22.50;58.60;;;;;;4915010;29;20420;-66
2023/10/03 10:52:56;;;;;;;14.90;7.93;;;22.50;58.60;;;;;;4898295;29;20471;-66
2023/10/03 10:55:26;;;;;;;13.30;8.10;;;22.50;58.60;;;;;;4915029;29;20487;-67
2023/10/03 10:58:10;;;;;;;13.77;8.20;;;22.50;58.60;;;;;;4915102;29;20411;-67
2023/10/03 11:00:36;;;;;;;14.50;8.30;;;22.50;58.60;;;;;;4914992;29;20416;-67
2023/10/03 11:03:03;;;;;;;13.33;8.80;;;22.50;58.60;;;;;;4914928;29;21058;-67
2023/10/03 11:05:48;;;;;;;12.40;8.30;;;22.50;58.60;;;;;;4914632;29;20459;-66
2023/10/03 11:08:14;;;;;;;11.43;7.53;;;22.50;58.60;;;;;;4914712;29;20502;-66
2023/10/03 11:10:52;;;;;;;10.80;8.03;;;22.50;58.60;;;;;;4914899;29;20886;-67
2023/10/03 11:13:19;;;;;;;10.73;7.47;;;22.50;58.70;;;;;;4959173;28;20486;-65
2023/10/03 11:15:52;;;;;;;13.73;7.23;;;22.50;58.50;;;;;;5007558;28;20427;-68
2023/10/03 11:18:28;;;;;;;12.30;7.30;;;22.50;58.50;;;;;;5010498;28;20912;-68
2023/10/03 11:20:55;;;;;;;13.50;7.20;;;22.50;58.50;;;;;;5011750;28;20842;-68
2023/10/03 11:23:23;;;;;;;10.00;6.57;;;22.50;58.50;;;;;;5010675;28;20443;-67
2023/10/03 11:25:58;;;;;;;11.90;7.10;;;22.50;58.50;;;;;;5008608;28;20459;-67
2023/10/03 11:28:25;;;;;;;10.17;7.77;;;22.50;58.40;;;;;;5011838;28;20509;-67
2023/10/03 11:31:04;;;;;;;9.73;7.17;;;22.50;58.40;;;;;;5011982;28;20427;-68
2023/10/03 11:33:46;;;;;;;8.93;7.40;;;22.50;58.40;;;;;;5011608;28;20588;-68
2023/10/03 11:36:13;;;;;;;10.30;7.00;;;22.50;58.50;;;;;;5010506;28;20435;-67
2023/10/03 11:38:50;;;;;;;9.03;6.50;;;22.50;58.50;;;;;;5012053;28;21143;-66
2023/10/03 11:41:32;;;;;;;10.60;6.97;;;22.50;58.50;;;;;;5011248;28;20426;-67
2023/10/03 11:43:59;;;;;;;8.07;6.63;;;22.50;58.50;;;;;;5011332;28;20478;-67
2023/10/03 11:46:25;;;;;;;13.20;7.90;;;22.50;58.50;;;;;;5011674;28;20423;-66
2023/10/03 11:48:57;;;;;;;11.10;7.30;;;22.50;58.50;;;;;;5011655;28;21054;-68
2023/10/03 11:51:23;;;;;;;11.50;7.40;;;22.50;58.50;;;;;;5011439;28;20455;-68
2023/10/03 11:53:49;;;;;;;11.80;6.70;;;22.50;58.50;;;;;;5011842;28;21057;-67
2023/10/03 11:56:17;;;;;;;12.33;7.70;;;22.50;58.50;;;;;;5011716;28;20184;-67
2023/10/03 11:58:42;;;;;;;11.40;7.80;;;22.50;58.50;;;;;;5011676;28;20195;-65
2023/10/03 12:01:08;;;;;;;8.13;6.30;;;22.50;58.50;;;;;;5010617;28;20501;-64
2023/10/03 12:03:33;;;;;;;9.80;6.73;;;22.60;58.50;;;;;;5010486;28;20196;-66
2023/10/03 12:05:59;;;;;;;6.97;5.73;;;22.50;58.50;;;;;;5010915;28;20191;-66
2023/10/03 12:08:24;;;;;;;9.33;6.30;;;22.60;58.60;;;;;;5010337;28;20218;-66
2023/10/03 12:10:50;;;;;;;7.43;5.77;;;22.60;58.50;;;;;;5009419;28;20319;-65
2023/10/03 12:13:16;;;;;;;9.83;6.20;;;22.60;58.50;;;;;;5012360;28;20208;-66
2023/10/03 12:15:42;;;;;;;9.50;6.23;;;22.60;58.50;;;;;;5012811;28;20663;-66
2023/10/03 12:18:08;;;;;;;9.10;5.60;;;22.60;58.50;;;;;;5012651;28;20493;-65
2023/10/03 12:20:37;;;;;;;9.60;6.73;;;22.60;58.50;;;;;;5012967;28;20491;-65
2023/10/03 12:23:04;;;;;;;7.30;5.40;;;22.60;58.40;;;;;;5011651;28;20477;-69
2023/10/03 12:25:30;;;;;;;10.07;5.90;;;22.60;58.50;;;;;;5012235;28;20501;-64
2023/10/03 12:27:55;;;;;;;8.53;6.20;;;22.60;58.50;;;;;;5011284;28;20522;-66
2023/10/03 12:30:22;;;;;;;7.33;5.77;;;22.60;58.50;;;;;;5011544;28;20641;-67
2023/10/03 12:32:49;;;;;;;8.70;5.83;;;22.60;58.50;;;;;;5012198;28;20243;-66
2023/10/03 12:38:42;;;;;;;7.67;5.53;;;22.60;58.50;;;;;;5005979;28;20411;-67
2023/10/03 12:41:09;;;;;;;9.37;6.03;;;22.60;58.50;;;;;;5012317;28;20505;-65
2023/10/03 12:43:39;;;;;;;7.60;5.77;;;22.60;58.60;;;;;;5012405;28;20443;-64
2023/10/03 12:46:06;;;;;;;9.00;5.83;;;22.60;58.60;;;;;;5011177;28;20453;-67
2023/10/03 12:48:32;;;;;;;8.30;6.50;;;22.60;58.60;;;;;;5012765;28;20852;-68
2023/10/03 12:50:58;;;;;;;8.37;6.27;;;22.60;58.60;;;;;;5012479;28;20514;-66
2023/10/03 12:53:23;;;;;;;6.20;5.20;;;22.60;58.60;;;;;;5012354;28;20258;-64